Friday, July 20, 2018, 4:57 AM EDT
Back to Local

KLWB, Lewisburg / Greenbrier

Location: Frankford, WV, United States Lat: 37.867
Local Time: 4:57 AM EDT ( 8:57 GMT) Lon: -80.4
Time Zone: US/Eastern Elev: 2303 ft

Show me the last for .
Show Decoded

2018-07-20 04:35 METAR KLWB 200835Z AUTO 02005KT 10SM CLR 16/15 A3012 RMK AO2 T01620149 =
2018-07-20 04:15 METAR KLWB 200815Z AUTO 05003KT 10SM SCT055 16/15 A3012 RMK AO2 T01550145 =
2018-07-20 03:55 METAR KLWB 200755Z AUTO 05004KT 10SM SCT055 SCT070 16/15 A3013 RMK AO2 T01600146
                 =
2018-07-20 03:35 METAR KLWB 200735Z AUTO 00000KT 10SM SCT070 17/15 A3013 RMK AO2 T01650148 =
2018-07-20 03:15 METAR KLWB 200715Z AUTO 03004KT 10SM SCT055 SCT070 18/15 A3013 RMK AO2 T01760150
                 =
2018-07-20 02:55 METAR KLWB 200655Z AUTO 05003KT 10SM BKN055 BKN070 18/15 A3013 RMK AO2 T01770151
                 =
2018-07-20 02:35 METAR KLWB 200635Z AUTO 04003KT 10SM BKN055 BKN070 18/15 A3013 RMK AO2 T01750150
                 =
2018-07-20 02:15 METAR KLWB 200615Z AUTO 00000KT 10SM BKN055 OVC065 18/15 A3014 RMK AO2 T01790151
                 =
2018-07-20 01:55 METAR KLWB 200555Z AUTO 06003KT 10SM BKN055 OVC065 18/15 A3014 RMK AO2 T01840148
                 10231 20184 =
2018-07-20 01:35 METAR KLWB 200535Z AUTO 00000KT 10SM SCT060 OVC065 21/14 A3014 RMK AO2 T02050139
                 =
2018-07-20 01:15 METAR KLWB 200515Z AUTO 00000KT 10SM OVC060 21/14 A3014 RMK AO2 T02100138 =
2018-07-20 00:55 METAR KLWB 200455Z AUTO 00000KT 10SM BKN060 21/14 A3015 RMK AO2 T02100138
                 402640110 =
2018-07-20 00:35 METAR KLWB 200435Z AUTO 00000KT 10SM BKN060 21/14 A3015 RMK AO2 T02080140 =
2018-07-20 00:15 METAR KLWB 200415Z AUTO 00000KT 10SM OVC060 21/14 A3015 RMK AO2 T02100140 =
2018-07-19 23:55 METAR KLWB 200355Z AUTO 15003KT 10SM OVC060 21/14 A3015 RMK AO2 T02110140 =
2018-07-19 23:35 METAR KLWB 200335Z AUTO 14004KT 10SM BKN060 21/14 A3015 RMK AO2 LTG DSNT S
                 T02070140 =
2018-07-19 23:15 METAR KLWB 200315Z AUTO 13003KT 10SM CLR 20/14 A3015 RMK AO2 T02040140 =
2018-07-19 22:55 METAR KLWB 200255Z AUTO 00000KT 10SM CLR 21/14 A3015 RMK AO2 T02110140 =
2018-07-19 22:35 METAR KLWB 200235Z AUTO 00000KT 10SM SCT055 21/14 A3014 RMK AO2 T02110141 =
2018-07-19 22:15 METAR KLWB 200215Z AUTO 16003KT 10SM SCT055 21/14 A3014 RMK AO2 T02090141 =
2018-07-19 21:55 METAR KLWB 200155Z AUTO 00000KT 10SM CLR 21/14 A3014 RMK AO2 T02110141 =
2018-07-19 21:35 METAR KLWB 200135Z AUTO 15003KT 10SM CLR 21/14 A3013 RMK AO2 T02140142 =
2018-07-19 21:15 METAR KLWB 200115Z AUTO 00000KT 10SM CLR 21/15 A3012 RMK AO2 T02120145 =
2018-07-19 20:55 METAR KLWB 200055Z AUTO 00000KT 10SM CLR 22/14 A3012 RMK AO2 T02210142 =
2018-07-19 20:35 METAR KLWB 200035Z AUTO 00000KT 10SM CLR 22/15 A3012 RMK AO2 T02230145 =
2018-07-19 20:15 METAR KLWB 200015Z AUTO 00000KT 10SM CLR 23/15 A3011 RMK AO2 T02260146 =
2018-07-19 19:55 METAR KLWB 192355Z AUTO 00000KT 10SM CLR 23/15 A3011 RMK AO2 T02320146 10264
                 20232 =
2018-07-19 19:35 METAR KLWB 192335Z AUTO 14003KT 10SM CLR 24/15 A3011 RMK AO2 T02350146 =
2018-07-19 19:15 METAR KLWB 192315Z AUTO 14004KT 10SM CLR 24/15 A3012 RMK AO2 T02400147 =
2018-07-19 18:55 METAR KLWB 192255Z AUTO 15003KT 10SM CLR 25/15 A3011 RMK AO2 T02460153 =
2018-07-19 18:35 METAR KLWB 192235Z AUTO 14003KT 10SM SCT060 24/15 A3011 RMK AO2 T02440149 =
2018-07-19 18:15 METAR KLWB 192215Z AUTO 15003KT 10SM CLR 25/15 A3011 RMK AO2 T02490150 =
2018-07-19 17:55 METAR KLWB 192155Z AUTO 15003KT 10SM CLR 25/15 A3011 RMK AO2 T02520149 =
2018-07-19 17:35 METAR KLWB 192135Z AUTO 13005KT 10SM CLR 25/15 A3012 RMK AO2 T02520151 =
2018-07-19 17:15 METAR KLWB 192115Z AUTO 16006KT 10SM CLR 25/15 A3012 RMK AO2 T02520147 =
2018-07-19 16:55 METAR KLWB 192055Z AUTO 15007KT 10SM CLR 26/15 A3012 RMK AO2 T02620153 =
2018-07-19 16:35 METAR KLWB 192035Z AUTO 15006KT 110V200 10SM CLR 26/15 A3012 RMK AO2 T02580151 =
2018-07-19 16:15 METAR KLWB 192015Z AUTO 17004KT 10SM CLR 26/15 A3013 RMK AO2 T02640151 =
2018-07-19 15:55 METAR KLWB 191955Z AUTO 16006KT 10SM CLR 26/15 A3013 RMK AO2 T02580149 =
2018-07-19 15:35 METAR KLWB 191935Z AUTO 14005KT 10SM SCT050 25/15 A3013 RMK AO2 T02540149 =
2018-07-19 15:15 METAR KLWB 191915Z AUTO 00000KT 10SM SCT050 26/15 A3014 RMK AO2 T02600148 =
2018-07-19 14:55 METAR KLWB 191855Z AUTO 13004KT 10SM SCT050 26/14 A3014 RMK AO2 T02600144 =
2018-07-19 14:35 METAR KLWB 191835Z AUTO 17006KT 10SM BKN050 25/14 A3015 RMK AO2 T02530140 =
2018-07-19 14:15 METAR KLWB 191815Z AUTO 16005KT 10SM BKN050 26/14 A3015 RMK AO2 T02560142 =
2018-07-19 13:55 METAR KLWB 191755Z AUTO 11006KT 10SM BKN050 26/14 A3015 RMK AO2 T02560138 10258
                 20137 =
2018-07-19 13:35 METAR KLWB 191735Z AUTO 19004KT 10SM SCT050 26/14 A3015 RMK AO2 T02580138 =
2018-07-19 13:15 METAR KLWB 191715Z AUTO 11003KT 10SM CLR 25/14 A3015 RMK AO2 T02510135 =
2018-07-19 12:55 METAR KLWB 191655Z AUTO 08008KT 10SM CLR 25/14 A3016 RMK AO2 T02490138 =
2018-07-19 12:35 METAR KLWB 191635Z AUTO 19005KT 10SM CLR 25/13 A3017 RMK AO2 T02510134 =
2018-07-19 12:15 METAR KLWB 191615Z AUTO 11004KT 10SM SCT050 25/14 A3017 RMK AO2 T02480139 =
2018-07-19 11:55 METAR KLWB 191555Z AUTO 11008KT 070V140 10SM SCT050 23/13 A3017 RMK AO2
                 T02340132 =
2018-07-19 11:35 METAR KLWB 191535Z AUTO 10005KT 10SM CLR 24/13 A3017 RMK AO2 T02370132 =
2018-07-19 11:15 METAR KLWB 191515Z AUTO 11008KT 10SM SCT050 23/13 A3017 RMK AO2 T02320133 =
2018-07-19 10:55 METAR KLWB 191455Z AUTO 09005KT 10SM CLR 23/14 A3017 RMK AO2 T02270141 =
2018-07-19 10:35 METAR KLWB 191435Z AUTO 00000KT 10SM CLR 22/14 A3017 RMK AO2 T02180141 =
2018-07-19 10:15 METAR KLWB 191415Z AUTO 07005KT 10SM CLR 21/14 A3018 RMK AO2 T02130142 =
2018-07-19 09:55 METAR KLWB 191355Z AUTO 03004KT 10SM CLR 20/14 A3018 RMK AO2 T02000141 =
2018-07-19 09:35 METAR KLWB 191335Z AUTO 04004KT 10SM CLR 19/14 A3018 RMK AO2 T01890139 =
2018-07-19 09:15 METAR KLWB 191315Z AUTO 03004KT 10SM CLR 18/14 A3018 RMK AO2 T01770135 =
2018-07-19 08:55 METAR KLWB 191255Z AUTO 03005KT 10SM CLR 17/14 A3017 RMK AO2 T01680135 =
2018-07-19 08:35 METAR KLWB 191235Z AUTO 04003KT 10SM CLR 16/13 A3017 RMK AO2 T01550131 =
2018-07-19 08:15 METAR KLWB 191215Z AUTO 04003KT 10SM CLR 15/13 A3017 RMK AO2 T01450127 =
2018-07-19 07:55 METAR KLWB 191155Z AUTO 05004KT 10SM CLR 14/12 A3016 RMK AO2 T01360123 10136
                 20110 =
2018-07-19 07:35 METAR KLWB 191135Z AUTO 05003KT 10SM SCT055 13/12 A3016 RMK AO2 T01310121 =
2018-07-19 07:15 METAR KLWB 191115Z AUTO 05004KT 10SM SCT055 13/12 A3015 RMK AO2 T01260120 =
2018-07-19 06:55 METAR KLWB 191055Z AUTO 04004KT 10SM CLR 12/12 A3015 RMK AO2 T01210115 =
2018-07-19 06:35 METAR KLWB 191035Z AUTO 03005KT 10SM CLR 12/11 A3015 RMK AO2 T01180112 =
2018-07-19 06:15 METAR KLWB 191015Z AUTO 03005KT 10SM CLR 12/11 A3015 RMK AO2 T01160111 =
2018-07-19 05:55 METAR KLWB 190955Z AUTO 03004KT 10SM CLR 11/11 A3014 RMK AO2 T01140110 =
2018-07-19 05:35 METAR KLWB 190935Z AUTO 03004KT 10SM CLR 12/11 A3014 RMK AO2 T01150111 =
2018-07-19 05:15 METAR KLWB 190915Z AUTO 03003KT 10SM CLR 12/11 A3014 RMK AO2 T01180111 =

Support USWX by starting your Amazon purchase here.